sensor_id;sensor_type;location;lat;lon;timestamp;P1;durP1;ratioP1;P2;durP2;ratioP2
55007;SDS011;40902;45.116;21.296;2023-04-29T00:02:01;9.02;;;4.07;;
55007;SDS011;40902;45.116;21.296;2023-04-29T00:04:27;7.30;;;3.72;;
55007;SDS011;40902;45.116;21.296;2023-04-29T00:06:52;10.50;;;3.58;;
55007;SDS011;40902;45.116;21.296;2023-04-29T00:09:18;4.28;;;3.25;;
55007;SDS011;40902;45.116;21.296;2023-04-29T00:11:45;5.93;;;3.70;;
55007;SDS011;40902;45.116;21.296;2023-04-29T00:14:11;15.73;;;9.18;;
55007;SDS011;40902;45.116;21.296;2023-04-29T00:16:37;14.82;;;10.48;;
55007;SDS011;40902;45.116;21.296;2023-04-29T00:19:03;16.92;;;10.90;;
55007;SDS011;40902;45.116;21.296;2023-04-29T00:21:29;17.65;;;10.88;;
55007;SDS011;40902;45.116;21.296;2023-04-29T00:23:57;13.43;;;10.00;;
55007;SDS011;40902;45.116;21.296;2023-04-29T00:26:22;14.45;;;9.73;;
55007;SDS011;40902;45.116;21.296;2023-04-29T00:28:48;13.75;;;9.50;;
55007;SDS011;40902;45.116;21.296;2023-04-29T00:31:14;12.48;;;8.35;;
55007;SDS011;40902;45.116;21.296;2023-04-29T00:33:39;14.18;;;8.75;;
55007;SDS011;40902;45.116;21.296;2023-04-29T00:36:06;13.43;;;8.35;;
55007;SDS011;40902;45.116;21.296;2023-04-29T00:38:32;15.50;;;9.05;;
55007;SDS011;40902;45.116;21.296;2023-04-29T00:40:58;14.48;;;8.80;;
55007;SDS011;40902;45.116;21.296;2023-04-29T00:43:24;12.82;;;7.22;;
55007;SDS011;40902;45.116;21.296;2023-04-29T00:45:50;14.48;;;7.65;;
55007;SDS011;40902;45.116;21.296;2023-04-29T00:48:16;10.90;;;7.40;;
55007;SDS011;40902;45.116;21.296;2023-04-29T00:50:41;15.70;;;7.63;;
55007;SDS011;40902;45.116;21.296;2023-04-29T00:53:10;16.08;;;7.45;;
55007;SDS011;40902;45.116;21.296;2023-04-29T00:55:39;12.68;;;6.88;;
55007;SDS011;40902;45.116;21.296;2023-04-29T00:58:07;12.50;;;7.88;;
55007;SDS011;40902;45.116;21.296;2023-04-29T01:00:34;14.20;;;8.15;;
55007;SDS011;40902;45.116;21.296;2023-04-29T01:03:01;12.35;;;7.82;;
55007;SDS011;40902;45.116;21.296;2023-04-29T01:05:29;10.82;;;6.57;;
55007;SDS011;40902;45.116;21.296;2023-04-29T01:07:58;8.25;;;5.03;;
55007;SDS011;40902;45.116;21.296;2023-04-29T01:10:34;8.27;;;3.90;;
55007;SDS011;40902;45.116;21.296;2023-04-29T01:13:06;7.18;;;4.20;;
55007;SDS011;40902;45.116;21.296;2023-04-29T01:15:53;6.70;;;3.85;;
55007;SDS011;40902;45.116;21.296;2023-04-29T01:18:40;5.82;;;3.05;;
55007;SDS011;40902;45.116;21.296;2023-04-29T01:21:09;6.05;;;3.15;;
55007;SDS011;40902;45.116;21.296;2023-04-29T01:23:35;7.15;;;3.30;;
55007;SDS011;40902;45.116;21.296;2023-04-29T01:26:01;7.47;;;3.45;;
55007;SDS011;40902;45.116;21.296;2023-04-29T01:31:10;6.30;;;3.42;;
55007;SDS011;40902;45.116;21.296;2023-04-29T01:33:53;6.47;;;3.10;;
55007;SDS011;40902;45.116;21.296;2023-04-29T01:39:36;7.90;;;3.80;;
55007;SDS011;40902;45.116;21.296;2023-04-29T01:42:44;13.93;;;7.03;;
55007;SDS011;40902;45.116;21.296;2023-04-29T01:45:14;11.98;;;7.43;;
55007;SDS011;40902;45.116;21.296;2023-04-29T01:47:45;12.90;;;7.28;;
55007;SDS011;40902;45.116;21.296;2023-04-29T01:50:12;9.90;;;7.18;;
55007;SDS011;40902;45.116;21.296;2023-04-29T01:52:38;15.48;;;8.30;;
55007;SDS011;40902;45.116;21.296;2023-04-29T01:55:04;9.80;;;7.03;;
55007;SDS011;40902;45.116;21.296;2023-04-29T01:57:30;12.75;;;7.35;;
55007;SDS011;40902;45.116;21.296;2023-04-29T01:59:56;12.15;;;7.20;;
55007;SDS011;40902;45.116;21.296;2023-04-29T02:02:22;12.07;;;7.50;;
55007;SDS011;40902;45.116;21.296;2023-04-29T02:04:49;11.82;;;7.47;;
55007;SDS011;40902;45.116;21.296;2023-04-29T02:07:15;10.40;;;7.03;;
55007;SDS011;40902;45.116;21.296;2023-04-29T02:09:41;11.18;;;7.68;;
55007;SDS011;40902;45.116;21.296;2023-04-29T02:12:07;9.88;;;6.80;;
55007;SDS011;40902;45.116;21.296;2023-04-29T02:14:33;9.40;;;5.40;;
55007;SDS011;40902;45.116;21.296;2023-04-29T02:16:58;9.85;;;5.32;;
55007;SDS011;40902;45.116;21.296;2023-04-29T02:19:24;10.00;;;5.05;;
55007;SDS011;40902;45.116;21.296;2023-04-29T02:21:50;6.72;;;4.75;;
55007;SDS011;40902;45.116;21.296;2023-04-29T02:24:16;6.10;;;3.83;;
55007;SDS011;40902;45.116;21.296;2023-04-29T02:26:41;9.45;;;3.80;;
55007;SDS011;40902;45.116;21.296;2023-04-29T02:29:07;5.85;;;3.78;;
55007;SDS011;40902;45.116;21.296;2023-04-29T02:31:33;5.93;;;4.32;;
55007;SDS011;40902;45.116;21.296;2023-04-29T02:33:58;6.13;;;4.07;;
55007;SDS011;40902;45.116;21.296;2023-04-29T02:36:24;7.00;;;3.92;;
55007;SDS011;40902;45.116;21.296;2023-04-29T02:38:50;5.88;;;3.92;;
55007;SDS011;40902;45.116;21.296;2023-04-29T02:41:19;9.05;;;4.30;;
55007;SDS011;40902;45.116;21.296;2023-04-29T02:43:45;6.60;;;4.35;;
55007;SDS011;40902;45.116;21.296;2023-04-29T02:46:11;8.68;;;4.40;;
55007;SDS011;40902;45.116;21.296;2023-04-29T02:48:37;9.20;;;4.85;;
55007;SDS011;40902;45.116;21.296;2023-04-29T02:51:02;7.80;;;4.70;;
55007;SDS011;40902;45.116;21.296;2023-04-29T02:53:28;6.15;;;4.45;;
55007;SDS011;40902;45.116;21.296;2023-04-29T02:55:54;7.03;;;4.50;;
55007;SDS011;40902;45.116;21.296;2023-04-29T02:58:19;6.72;;;4.38;;
55007;SDS011;40902;45.116;21.296;2023-04-29T03:00:45;8.05;;;4.80;;
55007;SDS011;40902;45.116;21.296;2023-04-29T03:03:11;6.65;;;4.80;;
55007;SDS011;40902;45.116;21.296;2023-04-29T03:05:37;7.97;;;5.18;;
55007;SDS011;40902;45.116;21.296;2023-04-29T03:08:03;7.82;;;4.63;;
55007;SDS011;40902;45.116;21.296;2023-04-29T03:10:29;7.30;;;4.50;;
55007;SDS011;40902;45.116;21.296;2023-04-29T03:12:54;8.00;;;4.50;;
55007;SDS011;40902;45.116;21.296;2023-04-29T03:15:20;6.72;;;4.57;;
55007;SDS011;40902;45.116;21.296;2023-04-29T03:17:46;7.55;;;4.80;;
55007;SDS011;40902;45.116;21.296;2023-04-29T03:20:12;8.57;;;4.50;;
55007;SDS011;40902;45.116;21.296;2023-04-29T03:22:38;9.07;;;4.78;;
55007;SDS011;40902;45.116;21.296;2023-04-29T03:25:04;8.05;;;4.40;;
55007;SDS011;40902;45.116;21.296;2023-04-29T03:27:30;6.28;;;4.70;;
55007;SDS011;40902;45.116;21.296;2023-04-29T03:29:56;5.47;;;4.05;;
55007;SDS011;40902;45.116;21.296;2023-04-29T03:32:21;6.03;;;4.28;;
55007;SDS011;40902;45.116;21.296;2023-04-29T03:34:48;5.88;;;4.35;;
55007;SDS011;40902;45.116;21.296;2023-04-29T03:37:13;6.70;;;4.38;;
55007;SDS011;40902;45.116;21.296;2023-04-29T03:39:40;8.73;;;3.92;;
55007;SDS011;40902;45.116;21.296;2023-04-29T03:42:06;6.20;;;3.90;;
55007;SDS011;40902;45.116;21.296;2023-04-29T03:44:32;8.88;;;4.35;;
55007;SDS011;40902;45.116;21.296;2023-04-29T03:46:58;6.65;;;4.20;;
55007;SDS011;40902;45.116;21.296;2023-04-29T03:49:24;6.00;;;3.90;;
55007;SDS011;40902;45.116;21.296;2023-04-29T03:51:50;7.97;;;4.20;;
55007;SDS011;40902;45.116;21.296;2023-04-29T03:54:16;6.97;;;3.85;;
55007;SDS011;40902;45.116;21.296;2023-04-29T03:56:41;6.07;;;3.78;;
55007;SDS011;40902;45.116;21.296;2023-04-29T03:59:07;5.95;;;3.60;;
55007;SDS011;40902;45.116;21.296;2023-04-29T04:01:33;7.60;;;3.97;;
55007;SDS011;40902;45.116;21.296;2023-04-29T04:03:59;5.82;;;4.38;;
55007;SDS011;40902;45.116;21.296;2023-04-29T04:06:25;8.45;;;3.83;;
55007;SDS011;40902;45.116;21.296;2023-04-29T04:08:51;5.43;;;3.75;;
55007;SDS011;40902;45.116;21.296;2023-04-29T04:11:16;9.02;;;3.90;;
55007;SDS011;40902;45.116;21.296;2023-04-29T04:13:42;8.23;;;3.65;;
55007;SDS011;40902;45.116;21.296;2023-04-29T04:16:08;6.57;;;3.90;;
55007;SDS011;40902;45.116;21.296;2023-04-29T04:18:37;5.88;;;3.80;;
55007;SDS011;40902;45.116;21.296;2023-04-29T04:21:09;4.85;;;3.60;;
55007;SDS011;40902;45.116;21.296;2023-04-29T04:23:36;6.13;;;3.87;;
55007;SDS011;40902;45.116;21.296;2023-04-29T04:26:04;6.45;;;3.10;;
55007;SDS011;40902;45.116;21.296;2023-04-29T04:28:30;5.18;;;3.58;;
55007;SDS011;40902;45.116;21.296;2023-04-29T04:30:56;6.05;;;3.53;;
55007;SDS011;40902;45.116;21.296;2023-04-29T04:33:22;5.05;;;3.20;;
55007;SDS011;40902;45.116;21.296;2023-04-29T04:35:49;5.47;;;3.00;;
55007;SDS011;40902;45.116;21.296;2023-04-29T04:38:14;7.70;;;4.07;;
55007;SDS011;40902;45.116;21.296;2023-04-29T04:40:41;6.18;;;3.42;;
55007;SDS011;40902;45.116;21.296;2023-04-29T04:43:07;7.40;;;4.03;;
55007;SDS011;40902;45.116;21.296;2023-04-29T04:45:33;6.00;;;4.05;;
55007;SDS011;40902;45.116;21.296;2023-04-29T04:47:59;6.32;;;4.00;;
55007;SDS011;40902;45.116;21.296;2023-04-29T04:50:27;6.00;;;3.83;;
55007;SDS011;40902;45.116;21.296;2023-04-29T04:52:54;6.97;;;4.25;;
55007;SDS011;40902;45.116;21.296;2023-04-29T04:55:20;6.72;;;3.90;;
55007;SDS011;40902;45.116;21.296;2023-04-29T04:57:46;8.95;;;4.07;;
55007;SDS011;40902;45.116;21.296;2023-04-29T05:00:12;8.70;;;3.75;;
55007;SDS011;40902;45.116;21.296;2023-04-29T05:02:38;6.07;;;3.65;;
55007;SDS011;40902;45.116;21.296;2023-04-29T05:05:04;5.43;;;3.05;;
55007;SDS011;40902;45.116;21.296;2023-04-29T05:07:31;5.25;;;3.40;;
55007;SDS011;40902;45.116;21.296;2023-04-29T05:09:59;5.82;;;3.50;;
55007;SDS011;40902;45.116;21.296;2023-04-29T05:12:26;7.25;;;3.95;;
55007;SDS011;40902;45.116;21.296;2023-04-29T05:14:54;6.10;;;4.05;;
55007;SDS011;40902;45.116;21.296;2023-04-29T05:17:20;9.50;;;4.45;;
55007;SDS011;40902;45.116;21.296;2023-04-29T05:19:46;6.50;;;4.93;;
55007;SDS011;40902;45.116;21.296;2023-04-29T05:22:12;6.38;;;4.50;;
55007;SDS011;40902;45.116;21.296;2023-04-29T05:24:39;9.15;;;4.53;;
55007;SDS011;40902;45.116;21.296;2023-04-29T05:27:05;7.05;;;4.68;;
55007;SDS011;40902;45.116;21.296;2023-04-29T05:29:31;7.85;;;5.40;;
55007;SDS011;40902;45.116;21.296;2023-04-29T05:31:57;7.28;;;5.05;;
55007;SDS011;40902;45.116;21.296;2023-04-29T05:34:23;7.00;;;5.40;;
55007;SDS011;40902;45.116;21.296;2023-04-29T05:36:49;7.78;;;5.50;;
55007;SDS011;40902;45.116;21.296;2023-04-29T05:39:15;7.90;;;5.50;;
55007;SDS011;40902;45.116;21.296;2023-04-29T05:41:41;8.93;;;5.53;;
55007;SDS011;40902;45.116;21.296;2023-04-29T05:44:08;7.95;;;5.32;;
55007;SDS011;40902;45.116;21.296;2023-04-29T05:46:34;9.23;;;5.40;;
55007;SDS011;40902;45.116;21.296;2023-04-29T05:49:00;6.43;;;4.63;;
55007;SDS011;40902;45.116;21.296;2023-04-29T05:51:26;8.73;;;4.85;;
55007;SDS011;40902;45.116;21.296;2023-04-29T05:53:53;9.68;;;4.97;;
55007;SDS011;40902;45.116;21.296;2023-04-29T05:56:19;10.05;;;5.38;;
55007;SDS011;40902;45.116;21.296;2023-04-29T05:58:46;9.15;;;5.50;;
55007;SDS011;40902;45.116;21.296;2023-04-29T06:01:12;7.50;;;5.43;;
55007;SDS011;40902;45.116;21.296;2023-04-29T06:03:38;8.25;;;5.82;;
55007;SDS011;40902;45.116;21.296;2023-04-29T06:06:05;7.63;;;5.10;;
55007;SDS011;40902;45.116;21.296;2023-04-29T06:08:31;10.10;;;5.35;;
55007;SDS011;40902;45.116;21.296;2023-04-29T06:10:58;9.45;;;5.18;;
55007;SDS011;40902;45.116;21.296;2023-04-29T06:13:24;7.55;;;4.40;;
55007;SDS011;40902;45.116;21.296;2023-04-29T06:15:50;6.22;;;4.10;;
55007;SDS011;40902;45.116;21.296;2023-04-29T06:18:16;7.00;;;4.35;;
55007;SDS011;40902;45.116;21.296;2023-04-29T06:20:42;7.68;;;4.47;;
55007;SDS011;40902;45.116;21.296;2023-04-29T06:23:08;8.07;;;4.45;;
55007;SDS011;40902;45.116;21.296;2023-04-29T06:25:34;6.47;;;3.70;;
55007;SDS011;40902;45.116;21.296;2023-04-29T06:28:00;5.82;;;3.25;;
55007;SDS011;40902;45.116;21.296;2023-04-29T06:30:28;5.82;;;3.63;;
55007;SDS011;40902;45.116;21.296;2023-04-29T06:32:54;7.00;;;3.60;;
55007;SDS011;40902;45.116;21.296;2023-04-29T06:35:20;7.35;;;3.85;;
55007;SDS011;40902;45.116;21.296;2023-04-29T06:37:47;7.07;;;3.70;;
55007;SDS011;40902;45.116;21.296;2023-04-29T06:40:13;9.15;;;3.97;;
55007;SDS011;40902;45.116;21.296;2023-04-29T06:42:39;6.75;;;4.30;;
55007;SDS011;40902;45.116;21.296;2023-04-29T06:45:05;8.43;;;3.80;;
55007;SDS011;40902;45.116;21.296;2023-04-29T06:47:31;8.88;;;4.60;;
55007;SDS011;40902;45.116;21.296;2023-04-29T06:49:57;6.05;;;3.75;;
55007;SDS011;40902;45.116;21.296;2023-04-29T06:52:24;7.78;;;3.28;;
55007;SDS011;40902;45.116;21.296;2023-04-29T06:54:50;7.13;;;3.33;;
55007;SDS011;40902;45.116;21.296;2023-04-29T06:57:16;9.52;;;3.63;;
55007;SDS011;40902;45.116;21.296;2023-04-29T06:59:42;6.88;;;3.30;;
55007;SDS011;40902;45.116;21.296;2023-04-29T07:02:08;5.93;;;3.70;;
55007;SDS011;40902;45.116;21.296;2023-04-29T07:04:34;7.63;;;3.63;;
55007;SDS011;40902;45.116;21.296;2023-04-29T07:07:01;6.95;;;4.10;;
55007;SDS011;40902;45.116;21.296;2023-04-29T07:09:27;7.47;;;4.82;;
55007;SDS011;40902;45.116;21.296;2023-04-29T07:11:54;7.72;;;4.65;;
55007;SDS011;40902;45.116;21.296;2023-04-29T07:14:20;11.65;;;6.03;;
55007;SDS011;40902;45.116;21.296;2023-04-29T07:16:52;9.88;;;4.75;;
55007;SDS011;40902;45.116;21.296;2023-04-29T07:19:18;8.30;;;4.60;;
55007;SDS011;40902;45.116;21.296;2023-04-29T07:21:44;8.25;;;4.10;;
55007;SDS011;40902;45.116;21.296;2023-04-29T07:24:10;10.35;;;4.47;;
55007;SDS011;40902;45.116;21.296;2023-04-29T07:26:36;7.35;;;4.10;;
55007;SDS011;40902;45.116;21.296;2023-04-29T07:29:02;7.70;;;4.22;;
55007;SDS011;40902;45.116;21.296;2023-04-29T07:31:28;6.00;;;3.88;;
55007;SDS011;40902;45.116;21.296;2023-04-29T07:33:54;5.57;;;3.65;;
55007;SDS011;40902;45.116;21.296;2023-04-29T07:36:21;8.32;;;3.70;;
55007;SDS011;40902;45.116;21.296;2023-04-29T07:38:47;8.95;;;3.92;;
55007;SDS011;40902;45.116;21.296;2023-04-29T07:41:13;8.02;;;3.80;;
55007;SDS011;40902;45.116;21.296;2023-04-29T07:43:39;8.13;;;3.47;;
55007;SDS011;40902;45.116;21.296;2023-04-29T07:46:05;8.70;;;4.35;;
55007;SDS011;40902;45.116;21.296;2023-04-29T07:48:35;8.35;;;3.88;;
55007;SDS011;40902;45.116;21.296;2023-04-29T07:51:02;7.43;;;3.83;;
55007;SDS011;40902;45.116;21.296;2023-04-29T07:53:28;8.73;;;4.28;;
55007;SDS011;40902;45.116;21.296;2023-04-29T07:55:54;6.78;;;3.40;;
55007;SDS011;40902;45.116;21.296;2023-04-29T07:58:20;7.13;;;3.85;;
55007;SDS011;40902;45.116;21.296;2023-04-29T08:00:46;7.93;;;3.67;;
55007;SDS011;40902;45.116;21.296;2023-04-29T08:03:12;9.85;;;3.60;;
55007;SDS011;40902;45.116;21.296;2023-04-29T08:05:39;6.13;;;3.63;;
55007;SDS011;40902;45.116;21.296;2023-04-29T08:08:05;6.22;;;3.63;;
55007;SDS011;40902;45.116;21.296;2023-04-29T08:10:31;4.78;;;3.33;;
55007;SDS011;40902;45.116;21.296;2023-04-29T08:12:57;6.80;;;3.70;;
55007;SDS011;40902;45.116;21.296;2023-04-29T08:15:23;9.20;;;3.42;;
55007;SDS011;40902;45.116;21.296;2023-04-29T08:17:49;6.32;;;4.03;;
55007;SDS011;40902;45.116;21.296;2023-04-29T08:20:15;6.97;;;3.60;;
55007;SDS011;40902;45.116;21.296;2023-04-29T08:22:41;6.53;;;3.30;;
55007;SDS011;40902;45.116;21.296;2023-04-29T08:25:07;5.70;;;3.75;;
55007;SDS011;40902;45.116;21.296;2023-04-29T08:27:33;7.32;;;4.25;;
55007;SDS011;40902;45.116;21.296;2023-04-29T08:29:59;6.05;;;4.10;;
55007;SDS011;40902;45.116;21.296;2023-04-29T08:32:25;8.85;;;4.90;;
55007;SDS011;40902;45.116;21.296;2023-04-29T08:34:51;9.15;;;4.97;;
55007;SDS011;40902;45.116;21.296;2023-04-29T08:37:18;17.10;;;10.82;;
55007;SDS011;40902;45.116;21.296;2023-04-29T08:39:44;16.13;;;8.82;;
55007;SDS011;40902;45.116;21.296;2023-04-29T08:42:11;7.28;;;4.93;;
55007;SDS011;40902;45.116;21.296;2023-04-29T08:44:39;9.10;;;3.88;;
55007;SDS011;40902;45.116;21.296;2023-04-29T08:47:05;6.35;;;3.92;;
55007;SDS011;40902;45.116;21.296;2023-04-29T08:49:31;7.72;;;4.45;;
55007;SDS011;40902;45.116;21.296;2023-04-29T08:51:58;7.15;;;4.28;;
55007;SDS011;40902;45.116;21.296;2023-04-29T08:54:24;8.13;;;5.80;;
55007;SDS011;40902;45.116;21.296;2023-04-29T08:56:52;6.65;;;4.22;;
55007;SDS011;40902;45.116;21.296;2023-04-29T08:59:19;6.93;;;3.95;;
55007;SDS011;40902;45.116;21.296;2023-04-29T09:01:45;10.52;;;4.60;;
55007;SDS011;40902;45.116;21.296;2023-04-29T09:06:44;5.95;;;4.10;;
55007;SDS011;40902;45.116;21.296;2023-04-29T09:09:11;6.28;;;4.18;;
55007;SDS011;40902;45.116;21.296;2023-04-29T09:11:39;5.53;;;3.72;;
55007;SDS011;40902;45.116;21.296;2023-04-29T09:14:05;9.45;;;4.60;;
55007;SDS011;40902;45.116;21.296;2023-04-29T09:16:33;7.60;;;4.43;;
55007;SDS011;40902;45.116;21.296;2023-04-29T09:19:02;6.38;;;3.75;;
55007;SDS011;40902;45.116;21.296;2023-04-29T09:21:28;9.40;;;4.30;;
55007;SDS011;40902;45.116;21.296;2023-04-29T09:23:58;10.80;;;4.85;;
55007;SDS011;40902;45.116;21.296;2023-04-29T09:26:25;11.40;;;5.03;;
55007;SDS011;40902;45.116;21.296;2023-04-29T09:29:07;9.23;;;4.70;;
55007;SDS011;40902;45.116;21.296;2023-04-29T09:31:34;7.07;;;5.18;;
55007;SDS011;40902;45.116;21.296;2023-04-29T09:34:00;8.13;;;4.70;;
55007;SDS011;40902;45.116;21.296;2023-04-29T09:36:39;9.20;;;4.32;;
55007;SDS011;40902;45.116;21.296;2023-04-29T09:39:06;9.05;;;5.45;;
55007;SDS011;40902;45.116;21.296;2023-04-29T09:41:39;8.00;;;4.65;;
55007;SDS011;40902;45.116;21.296;2023-04-29T09:44:06;6.93;;;4.10;;
55007;SDS011;40902;45.116;21.296;2023-04-29T09:46:32;8.10;;;5.07;;
55007;SDS011;40902;45.116;21.296;2023-04-29T09:48:59;9.50;;;5.07;;
55007;SDS011;40902;45.116;21.296;2023-04-29T09:51:25;9.82;;;4.40;;
55007;SDS011;40902;45.116;21.296;2023-04-29T09:53:51;8.02;;;4.40;;
55007;SDS011;40902;45.116;21.296;2023-04-29T09:56:17;6.13;;;4.00;;
55007;SDS011;40902;45.116;21.296;2023-04-29T09:58:43;6.85;;;4.38;;
55007;SDS011;40902;45.116;21.296;2023-04-29T10:01:10;8.98;;;4.47;;
55007;SDS011;40902;45.116;21.296;2023-04-29T10:03:38;6.13;;;3.50;;
55007;SDS011;40902;45.116;21.296;2023-04-29T10:06:05;7.95;;;3.30;;
55007;SDS011;40902;45.116;21.296;2023-04-29T10:08:32;5.70;;;3.47;;
55007;SDS011;40902;45.116;21.296;2023-04-29T10:10:59;5.85;;;3.63;;
55007;SDS011;40902;45.116;21.296;2023-04-29T10:13:29;8.55;;;5.10;;
55007;SDS011;40902;45.116;21.296;2023-04-29T10:18:44;11.02;;;6.72;;
55007;SDS011;40902;45.116;21.296;2023-04-29T10:21:16;12.73;;;8.75;;
55007;SDS011;40902;45.116;21.296;2023-04-29T10:23:46;8.05;;;5.30;;
55007;SDS011;40902;45.116;21.296;2023-04-29T10:26:13;6.60;;;4.00;;
55007;SDS011;40902;45.116;21.296;2023-04-29T10:28:40;8.45;;;5.32;;
55007;SDS011;40902;45.116;21.296;2023-04-29T10:31:09;8.80;;;4.20;;
55007;SDS011;40902;45.116;21.296;2023-04-29T10:33:37;6.88;;;3.95;;
55007;SDS011;40902;45.116;21.296;2023-04-29T10:36:05;7.28;;;3.95;;
55007;SDS011;40902;45.116;21.296;2023-04-29T10:38:38;6.07;;;4.45;;
55007;SDS011;40902;45.116;21.296;2023-04-29T10:41:09;5.97;;;4.00;;
55007;SDS011;40902;45.116;21.296;2023-04-29T10:43:55;6.45;;;3.05;;
55007;SDS011;40902;45.116;21.296;2023-04-29T10:46:24;5.97;;;3.30;;
55007;SDS011;40902;45.116;21.296;2023-04-29T10:48:55;6.72;;;3.40;;
55007;SDS011;40902;45.116;21.296;2023-04-29T10:51:32;5.38;;;3.40;;
55007;SDS011;40902;45.116;21.296;2023-04-29T10:59:19;5.82;;;3.28;;
55007;SDS011;40902;45.116;21.296;2023-04-29T11:01:57;6.32;;;3.05;;
55007;SDS011;40902;45.116;21.296;2023-04-29T11:04:23;6.13;;;3.10;;
55007;SDS011;40902;45.116;21.296;2023-04-29T11:06:54;10.95;;;5.35;;
55007;SDS011;40902;45.116;21.296;2023-04-29T11:09:23;8.07;;;4.97;;
55007;SDS011;40902;45.116;21.296;2023-04-29T11:14:36;5.13;;;3.47;;
55007;SDS011;40902;45.116;21.296;2023-04-29T11:17:14;5.68;;;2.92;;
55007;SDS011;40902;45.116;21.296;2023-04-29T11:19:41;5.95;;;2.83;;
55007;SDS011;40902;45.116;21.296;2023-04-29T11:22:23;6.28;;;4.68;;
55007;SDS011;40902;45.116;21.296;2023-04-29T11:27:17;6.88;;;3.90;;
55007;SDS011;40902;45.116;21.296;2023-04-29T11:29:44;7.85;;;3.67;;
55007;SDS011;40902;45.116;21.296;2023-04-29T11:32:11;6.13;;;3.53;;
55007;SDS011;40902;45.116;21.296;2023-04-29T11:34:37;6.13;;;3.60;;
55007;SDS011;40902;45.116;21.296;2023-04-29T11:37:04;7.03;;;4.57;;
55007;SDS011;40902;45.116;21.296;2023-04-29T11:39:35;5.35;;;3.47;;
55007;SDS011;40902;45.116;21.296;2023-04-29T11:42:02;7.05;;;3.58;;
55007;SDS011;40902;45.116;21.296;2023-04-29T11:44:28;6.28;;;3.40;;
55007;SDS011;40902;45.116;21.296;2023-04-29T11:47:05;6.83;;;3.37;;
55007;SDS011;40902;45.116;21.296;2023-04-29T11:49:31;6.70;;;3.22;;
55007;SDS011;40902;45.116;21.296;2023-04-29T11:51:57;6.13;;;3.13;;
55007;SDS011;40902;45.116;21.296;2023-04-29T11:54:26;6.53;;;3.15;;
55007;SDS011;40902;45.116;21.296;2023-04-29T11:56:53;6.90;;;4.03;;
55007;SDS011;40902;45.116;21.296;2023-04-29T11:59:20;6.45;;;4.28;;
55007;SDS011;40902;45.116;21.296;2023-04-29T12:01:49;5.88;;;3.63;;
55007;SDS011;40902;45.116;21.296;2023-04-29T12:04:15;7.70;;;4.22;;
55007;SDS011;40902;45.116;21.296;2023-04-29T12:06:41;9.55;;;4.50;;
55007;SDS011;40902;45.116;21.296;2023-04-29T12:09:07;12.52;;;5.13;;
55007;SDS011;40902;45.116;21.296;2023-04-29T12:11:34;13.20;;;5.60;;
55007;SDS011;40902;45.116;21.296;2023-04-29T12:14:01;8.43;;;4.38;;
55007;SDS011;40902;45.116;21.296;2023-04-29T12:16:30;9.23;;;4.68;;
55007;SDS011;40902;45.116;21.296;2023-04-29T12:18:57;6.38;;;4.05;;
55007;SDS011;40902;45.116;21.296;2023-04-29T12:21:23;6.72;;;3.92;;
55007;SDS011;40902;45.116;21.296;2023-04-29T12:23:50;8.20;;;3.70;;
55007;SDS011;40902;45.116;21.296;2023-04-29T12:26:17;8.68;;;3.60;;
55007;SDS011;40902;45.116;21.296;2023-04-29T12:28:44;11.40;;;4.25;;
55007;SDS011;40902;45.116;21.296;2023-04-29T12:31:13;8.13;;;4.35;;
55007;SDS011;40902;45.116;21.296;2023-04-29T12:33:41;6.18;;;3.90;;
55007;SDS011;40902;45.116;21.296;2023-04-29T12:36:14;7.35;;;3.92;;
55007;SDS011;40902;45.116;21.296;2023-04-29T12:38:41;7.45;;;4.53;;
55007;SDS011;40902;45.116;21.296;2023-04-29T12:41:07;9.07;;;4.25;;
55007;SDS011;40902;45.116;21.296;2023-04-29T12:43:34;5.30;;;3.60;;
55007;SDS011;40902;45.116;21.296;2023-04-29T12:46:05;8.38;;;4.45;;
55007;SDS011;40902;45.116;21.296;2023-04-29T12:48:32;7.97;;;4.75;;
55007;SDS011;40902;45.116;21.296;2023-04-29T12:50:59;7.03;;;3.92;;
55007;SDS011;40902;45.116;21.296;2023-04-29T12:53:26;8.45;;;4.03;;
55007;SDS011;40902;45.116;21.296;2023-04-29T12:55:52;8.00;;;3.72;;
55007;SDS011;40902;45.116;21.296;2023-04-29T12:58:18;6.10;;;3.85;;
55007;SDS011;40902;45.116;21.296;2023-04-29T13:00:44;8.15;;;4.22;;
55007;SDS011;40902;45.116;21.296;2023-04-29T13:03:11;5.85;;;3.90;;
55007;SDS011;40902;45.116;21.296;2023-04-29T13:05:37;6.07;;;4.28;;
55007;SDS011;40902;45.116;21.296;2023-04-29T13:08:03;6.95;;;3.83;;
55007;SDS011;40902;45.116;21.296;2023-04-29T13:10:32;7.22;;;3.65;;
55007;SDS011;40902;45.116;21.296;2023-04-29T13:12:58;6.85;;;4.15;;
55007;SDS011;40902;45.116;21.296;2023-04-29T13:15:25;7.80;;;3.50;;
55007;SDS011;40902;45.116;21.296;2023-04-29T13:17:52;8.13;;;3.83;;
55007;SDS011;40902;45.116;21.296;2023-04-29T13:20:18;5.75;;;3.35;;
55007;SDS011;40902;45.116;21.296;2023-04-29T13:22:44;6.22;;;3.67;;
55007;SDS011;40902;45.116;21.296;2023-04-29T13:25:10;6.07;;;3.50;;
55007;SDS011;40902;45.116;21.296;2023-04-29T13:27:37;4.97;;;3.25;;
55007;SDS011;40902;45.116;21.296;2023-04-29T13:30:05;6.50;;;3.47;;
55007;SDS011;40902;45.116;21.296;2023-04-29T13:32:32;5.78;;;3.13;;
55007;SDS011;40902;45.116;21.296;2023-04-29T13:34:58;6.07;;;2.78;;
55007;SDS011;40902;45.116;21.296;2023-04-29T13:37:23;6.25;;;3.20;;
55007;SDS011;40902;45.116;21.296;2023-04-29T13:39:49;4.40;;;2.80;;
55007;SDS011;40902;45.116;21.296;2023-04-29T13:42:15;5.90;;;3.10;;
55007;SDS011;40902;45.116;21.296;2023-04-29T13:44:40;4.60;;;2.67;;
55007;SDS011;40902;45.116;21.296;2023-04-29T13:47:10;3.92;;;2.80;;
55007;SDS011;40902;45.116;21.296;2023-04-29T13:49:37;6.53;;;2.90;;
55007;SDS011;40902;45.116;21.296;2023-04-29T13:52:08;5.30;;;2.63;;
55007;SDS011;40902;45.116;21.296;2023-04-29T13:54:37;4.93;;;2.50;;
55007;SDS011;40902;45.116;21.296;2023-04-29T13:57:03;5.60;;;2.83;;
55007;SDS011;40902;45.116;21.296;2023-04-29T13:59:32;4.63;;;2.70;;
55007;SDS011;40902;45.116;21.296;2023-04-29T14:01:59;4.50;;;2.70;;
55007;SDS011;40902;45.116;21.296;2023-04-29T14:04:25;6.53;;;3.15;;
55007;SDS011;40902;45.116;21.296;2023-04-29T14:06:52;7.63;;;3.15;;
55007;SDS011;40902;45.116;21.296;2023-04-29T14:09:19;4.03;;;2.60;;
55007;SDS011;40902;45.116;21.296;2023-04-29T14:11:46;6.38;;;2.92;;
55007;SDS011;40902;45.116;21.296;2023-04-29T14:14:12;6.03;;;3.35;;
55007;SDS011;40902;45.116;21.296;2023-04-29T14:16:38;3.92;;;2.85;;
55007;SDS011;40902;45.116;21.296;2023-04-29T14:19:05;5.72;;;2.97;;
55007;SDS011;40902;45.116;21.296;2023-04-29T14:21:31;4.43;;;2.80;;
55007;SDS011;40902;45.116;21.296;2023-04-29T14:24:00;5.03;;;2.97;;
55007;SDS011;40902;45.116;21.296;2023-04-29T14:26:27;7.85;;;5.00;;
55007;SDS011;40902;45.116;21.296;2023-04-29T14:28:54;12.65;;;6.82;;
55007;SDS011;40902;45.116;21.296;2023-04-29T14:31:27;13.95;;;8.10;;
55007;SDS011;40902;45.116;21.296;2023-04-29T14:33:53;22.40;;;12.45;;
55007;SDS011;40902;45.116;21.296;2023-04-29T14:36:20;12.52;;;5.05;;
55007;SDS011;40902;45.116;21.296;2023-04-29T14:38:46;9.70;;;6.38;;
55007;SDS011;40902;45.116;21.296;2023-04-29T14:41:12;4.70;;;3.03;;
55007;SDS011;40902;45.116;21.296;2023-04-29T14:43:38;6.93;;;4.70;;
55007;SDS011;40902;45.116;21.296;2023-04-29T14:46:05;8.30;;;5.97;;
55007;SDS011;40902;45.116;21.296;2023-04-29T14:48:34;9.35;;;6.80;;
55007;SDS011;40902;45.116;21.296;2023-04-29T14:51:00;7.60;;;5.07;;
55007;SDS011;40902;45.116;21.296;2023-04-29T14:53:27;5.68;;;3.78;;
55007;SDS011;40902;45.116;21.296;2023-04-29T14:55:53;5.10;;;2.67;;